createdAt,value
2022-08-03T00:01:11.607Z,84.77
2022-08-03T00:01:50.579Z,84.72
2022-08-03T00:02:50.577Z,85.05
2022-08-03T00:03:50.529Z,85.15
2022-08-03T00:04:50.488Z,85.11
2022-08-03T00:06:04.452Z,85.15
2022-08-03T00:07:11.441Z,85.11
2022-08-03T00:07:50.403Z,85.21
2022-08-03T00:08:50.368Z,85.01
2022-08-03T00:09:50.347Z,84.91
2022-08-03T00:10:50.318Z,85.21
2022-08-03T00:11:50.292Z,85.69
2022-08-03T00:13:11.256Z,85.98
2022-08-03T00:13:50.230Z,85.88
2022-08-03T00:14:50.214Z,85.78
2022-08-03T00:15:50.177Z,85.69
2022-08-03T00:16:50.158Z,85.49
2022-08-03T00:17:53.332Z,85.88
2022-08-03T00:19:11.106Z,85.88
2022-08-03T00:19:50.064Z,85.88
2022-08-03T00:20:50.032Z,86.07
2022-08-03T00:21:50.038Z,85.88
2022-08-03T00:22:49.980Z,86.17
2022-08-03T00:23:52.412Z,86.17
2022-08-03T00:25:10.921Z,86.27
2022-08-03T00:25:49.895Z,86.07
2022-08-03T00:26:49.872Z,86.46
2022-08-03T00:27:50.431Z,86.17
2022-08-03T00:28:49.815Z,86.75
2022-08-03T00:29:59.327Z,86.27
2022-08-03T00:31:13.469Z,86.36
2022-08-03T00:31:52.564Z,85.98
2022-08-03T00:32:49.704Z,86.42
2022-08-03T00:33:59.008Z,86.52
2022-08-03T00:34:58.968Z,87.13
2022-08-03T00:35:50.214Z,86.90
2022-08-03T00:37:10.582Z,86.85
2022-08-03T00:37:49.552Z,86.94
2022-08-03T00:38:49.536Z,86.80
2022-08-03T00:39:49.501Z,86.61
2022-08-03T00:40:49.500Z,86.90
2022-08-03T00:41:49.441Z,86.52
2022-08-03T00:43:10.406Z,86.71
2022-08-03T00:43:49.391Z,86.80
2022-08-03T00:44:49.364Z,87.00
2022-08-03T00:45:50.133Z,87.09
2022-08-03T00:46:49.320Z,87.09
2022-08-03T00:47:49.282Z,87.48
2022-08-03T00:49:10.275Z,87.09
2022-08-03T00:49:49.219Z,87.09
2022-08-03T00:50:49.184Z,87.58
2022-08-03T00:51:49.158Z,87.48
2022-08-03T00:52:49.127Z,86.80
2022-08-03T00:53:49.103Z,87.29
2022-08-03T00:55:10.074Z,87.48
2022-08-03T00:55:49.044Z,87.29
2022-08-03T00:56:59.221Z,87.38
2022-08-03T00:57:49.000Z,87.38
2022-08-03T00:58:48.959Z,87.09
2022-08-03T00:59:48.929Z,87.48
2022-08-03T01:01:09.977Z,87.38
2022-08-03T01:01:48.950Z,87.67
2022-08-03T01:02:48.848Z,87.96
2022-08-03T01:03:48.820Z,87.96
2022-08-03T01:04:48.794Z,87.87
2022-08-03T01:05:48.899Z,88.06
2022-08-03T01:07:10.885Z,88.06
2022-08-03T01:07:48.704Z,87.77
2022-08-03T01:08:48.691Z,87.87
2022-08-03T01:09:48.645Z,87.73
2022-08-03T01:10:48.618Z,87.87
2022-08-03T01:12:00.555Z,88.06
2022-08-03T01:14:01.364Z,88.06
2022-08-03T01:14:02.068Z,87.82
2022-08-03T01:14:48.505Z,88.40
2022-08-03T01:15:48.479Z,88.02
2022-08-03T01:16:48.442Z,88.59
2022-08-03T01:17:48.416Z,88.40
2022-08-03T01:19:09.385Z,88.40
2022-08-03T01:19:48.363Z,88.59
2022-08-03T01:20:48.330Z,88.59
2022-08-03T01:21:48.306Z,88.40
2022-08-03T01:22:48.278Z,88.31
2022-08-03T01:23:48.262Z,88.50
2022-08-03T01:25:09.215Z,88.40
2022-08-03T01:25:48.192Z,88.59
2022-08-03T01:26:48.162Z,88.79
2022-08-03T01:27:48.131Z,88.89
2022-08-03T01:28:48.109Z,88.98
2022-08-03T01:29:48.080Z,88.79
2022-08-03T01:31:09.051Z,88.79
2022-08-03T01:32:53.391Z,88.79
2022-08-03T01:32:53.428Z,88.79
2022-08-03T01:33:47.960Z,88.69
2022-08-03T01:34:47.938Z,88.69
2022-08-03T01:35:47.914Z,88.59
2022-08-03T01:37:08.887Z,88.69
2022-08-03T01:37:47.850Z,89.07
2022-08-03T01:38:47.820Z,88.59
2022-08-03T01:39:47.792Z,88.98
2022-08-03T01:40:47.760Z,88.98
2022-08-03T01:41:47.725Z,88.98
2022-08-03T01:43:08.698Z,88.69
2022-08-03T01:43:59.068Z,88.89
2022-08-03T01:44:47.657Z,88.89
2022-08-03T01:45:47.615Z,89.27
2022-08-03T01:46:48.962Z,88.98
2022-08-03T01:47:47.566Z,89.75
2022-08-03T01:49:09.168Z,89.65
2022-08-03T01:49:47.577Z,89.61
2022-08-03T01:50:47.477Z,89.07
2022-08-03T01:52:03.960Z,89.75
2022-08-03T01:52:47.418Z,89.56
2022-08-03T01:53:47.398Z,89.56
2022-08-03T01:55:08.375Z,89.75
2022-08-03T01:55:47.342Z,89.81
2022-08-03T01:56:47.313Z,89.90
2022-08-03T01:58:04.567Z,89.90
2022-08-03T01:58:47.243Z,89.75
2022-08-03T01:59:47.216Z,90.29
2022-08-03T02:01:08.267Z,90.00
2022-08-03T02:02:15.432Z,89.81
2022-08-03T02:02:47.176Z,89.81
2022-08-03T02:04:00.686Z,90.09
2022-08-03T02:04:47.067Z,89.51
2022-08-03T02:05:47.040Z,90.00
2022-08-03T02:07:08.017Z,90.19
2022-08-03T02:07:46.983Z,90.48
2022-08-03T02:08:46.963Z,90.77
2022-08-03T02:09:46.958Z,90.09
2022-08-03T02:10:46.901Z,90.38
2022-08-03T02:11:46.877Z,90.38
2022-08-03T02:13:07.849Z,90.48
2022-08-03T02:13:46.835Z,90.38
2022-08-03T02:14:46.817Z,90.58
2022-08-03T02:15:46.798Z,90.38
2022-08-03T02:16:46.745Z,90.96
2022-08-03T02:17:46.698Z,90.77
2022-08-03T02:19:07.671Z,90.87
2022-08-03T02:19:46.658Z,90.48
2022-08-03T02:20:46.614Z,90.87
2022-08-03T02:21:57.408Z,90.87
2022-08-03T02:22:46.555Z,90.87
2022-08-03T02:23:46.538Z,90.87
2022-08-03T02:25:07.492Z,90.48
2022-08-03T02:25:46.465Z,91.06
2022-08-03T02:26:46.468Z,90.67
2022-08-03T02:27:46.410Z,91.25
2022-08-03T02:28:46.389Z,90.96
2022-08-03T02:29:46.351Z,90.96
2022-08-03T02:31:07.324Z,90.67
2022-08-03T02:31:46.293Z,90.87
2022-08-03T02:32:46.260Z,90.58
2022-08-03T02:33:46.234Z,91.16
2022-08-03T02:34:46.221Z,91.25
2022-08-03T02:35:46.185Z,91.16
2022-08-03T02:37:07.145Z,91.35
2022-08-03T02:37:49.567Z,90.96
2022-08-03T02:38:46.093Z,90.96
2022-08-03T02:39:46.057Z,90.96
2022-08-03T02:40:46.029Z,91.54
2022-08-03T02:41:46.027Z,91.16
2022-08-03T02:43:06.974Z,91.64
2022-08-03T02:44:06.359Z,91.74
2022-08-03T02:44:45.914Z,91.54
2022-08-03T02:45:45.921Z,91.54
2022-08-03T02:46:45.858Z,91.11
2022-08-03T02:47:54.306Z,91.11
2022-08-03T02:49:41.076Z,91.54
2022-08-03T02:49:50.898Z,91.02
2022-08-03T02:50:48.344Z,91.16
2022-08-03T02:51:45.719Z,91.40
2022-08-03T02:52:45.690Z,91.20
2022-08-03T02:53:45.659Z,91.30
2022-08-03T02:55:06.634Z,91.20
2022-08-03T02:55:45.714Z,91.11
2022-08-03T02:56:45.569Z,90.92
2022-08-03T02:57:45.540Z,91.74
2022-08-03T02:58:45.520Z,91.93
2022-08-03T02:59:45.497Z,91.69
2022-08-03T03:01:06.497Z,91.88
2022-08-03T03:01:45.423Z,91.69
2022-08-03T03:02:45.393Z,91.88
2022-08-03T03:03:45.370Z,91.60
2022-08-03T03:05:50.661Z,91.88
2022-08-03T03:05:55.110Z,91.60
2022-08-03T03:07:06.278Z,91.98
2022-08-03T03:07:51.311Z,91.98
2022-08-03T03:08:45.217Z,92.08
2022-08-03T03:09:45.189Z,91.69
2022-08-03T03:10:45.165Z,91.98
2022-08-03T03:11:45.134Z,91.69
2022-08-03T03:13:06.101Z,91.98
2022-08-03T03:13:45.076Z,92.17
2022-08-03T03:14:45.042Z,92.08
2022-08-03T03:15:45.016Z,91.88
2022-08-03T03:16:44.989Z,92.08
2022-08-03T03:17:44.958Z,92.17
2022-08-03T03:19:05.933Z,91.98
2022-08-03T03:19:44.900Z,92.36
2022-08-03T03:20:44.871Z,91.88
2022-08-03T03:21:44.838Z,92.08
2022-08-03T03:22:45.221Z,92.17
2022-08-03T03:23:44.787Z,91.69
2022-08-03T03:25:05.749Z,92.08
2022-08-03T03:25:44.727Z,91.88
2022-08-03T03:26:44.695Z,92.08
2022-08-03T03:27:44.662Z,92.08
2022-08-03T03:28:44.636Z,92.08
2022-08-03T03:29:44.602Z,92.27
2022-08-03T03:31:05.580Z,91.98
2022-08-03T03:31:44.569Z,92.08
2022-08-03T03:32:44.519Z,91.98
2022-08-03T03:33:44.496Z,92.08
2022-08-03T03:34:44.461Z,92.17
2022-08-03T03:35:44.431Z,92.08
2022-08-03T03:37:05.398Z,92.08
2022-08-03T03:37:44.375Z,91.98
2022-08-03T03:38:44.348Z,91.88
2022-08-03T03:39:44.314Z,91.98
2022-08-03T03:40:44.286Z,91.98
2022-08-03T03:41:44.255Z,92.17
2022-08-03T03:43:05.227Z,92.27
2022-08-03T03:43:44.199Z,92.22
2022-08-03T03:44:44.170Z,92.22
2022-08-03T03:45:44.145Z,92.03
2022-08-03T03:46:44.116Z,92.03
2022-08-03T03:52:26.509Z,92.80
2022-08-03T03:53:26.484Z,92.03
2022-08-03T03:54:29.448Z,92.13
2022-08-03T03:55:26.422Z,92.41
2022-08-03T03:56:26.383Z,92.51
2022-08-03T03:59:08.906Z,92.41
2022-08-03T04:00:08.861Z,92.41
2022-08-03T04:02:01.711Z,92.41
2022-08-03T04:03:01.667Z,92.80
2022-08-03T04:05:05.571Z,92.90
2022-08-03T04:06:05.538Z,92.90
2022-08-03T04:08:09.458Z,92.61
2022-08-03T04:09:09.418Z,92.80
2022-08-03T04:11:13.325Z,92.90
2022-08-03T04:12:13.585Z,92.41
2022-08-03T04:14:17.208Z,92.90
2022-08-03T04:15:17.161Z,93.19
2022-08-03T04:17:21.069Z,92.41
2022-08-03T04:18:21.037Z,92.71
2022-08-03T04:20:24.954Z,93.09
2022-08-03T04:21:24.919Z,92.99
2022-08-03T04:23:28.837Z,93.48
2022-08-03T04:24:28.786Z,92.99
2022-08-03T04:26:32.689Z,93.19
2022-08-03T04:27:32.660Z,93.28
2022-08-03T04:29:38.658Z,92.99
2022-08-03T04:30:36.529Z,93.28
2022-08-03T04:32:45.489Z,93.86
2022-08-03T04:33:40.405Z,93.66
2022-08-03T04:36:01.712Z,93.66
2022-08-03T04:36:44.275Z,93.19
2022-08-03T04:38:48.184Z,93.28
2022-08-03T04:39:48.150Z,92.99
2022-08-03T04:42:07.561Z,92.90
2022-08-03T04:42:40.955Z,92.99
2022-08-03T04:44:44.861Z,92.99
2022-08-03T04:45:44.831Z,93.19
2022-08-03T04:47:48.751Z,93.76
2022-08-03T04:48:48.707Z,92.80
2022-08-03T04:50:52.606Z,93.09
2022-08-03T04:51:52.582Z,93.86
2022-08-03T04:53:56.492Z,92.99
2022-08-03T04:54:56.446Z,92.90
2022-08-03T04:57:00.349Z,93.38
2022-08-03T04:58:00.315Z,93.09
2022-08-03T05:00:04.240Z,92.99
2022-08-03T05:01:04.187Z,92.80
2022-08-03T05:03:20.363Z,93.09
2022-08-03T05:04:08.063Z,92.80
2022-08-03T05:06:12.061Z,93.28
2022-08-03T05:07:12.598Z,92.99
2022-08-03T05:09:15.922Z,93.09
2022-08-03T05:10:16.765Z,93.19
2022-08-03T05:12:08.736Z,93.19
2022-08-03T05:13:08.690Z,93.19
2022-08-03T05:15:12.611Z,92.46
2022-08-03T05:16:12.558Z,93.23
2022-08-03T05:18:16.468Z,92.85
2022-08-03T05:19:16.433Z,93.04
2022-08-03T05:21:20.353Z,93.43
2022-08-03T05:22:20.308Z,92.65
2022-08-03T05:24:24.226Z,92.46
2022-08-03T05:25:27.307Z,93.43
2022-08-03T05:27:28.093Z,92.46
2022-08-03T05:28:28.061Z,92.56
2022-08-03T05:30:34.366Z,92.65
2022-08-03T05:31:31.928Z,92.94
2022-08-03T05:33:35.851Z,92.85
2022-08-03T05:34:35.814Z,93.33
2022-08-03T05:36:39.733Z,93.43
2022-08-03T05:37:39.680Z,93.33
2022-08-03T05:39:43.604Z,93.33
2022-08-03T05:40:56.657Z,92.85
2022-08-03T05:42:48.061Z,92.46
2022-08-03T05:43:47.819Z,93.13
2022-08-03T05:46:12.015Z,93.23
2022-08-03T05:46:51.495Z,93.13
2022-08-03T05:48:55.447Z,93.23
2022-08-03T05:49:55.370Z,93.43
2022-08-03T05:51:48.219Z,93.62
2022-08-03T05:52:48.176Z,93.04
2022-08-03T05:54:56.604Z,93.62
2022-08-03T05:55:56.117Z,93.81
2022-08-03T05:56:52.017Z,93.81
2022-08-03T05:57:51.988Z,94.10
2022-08-03T05:58:51.959Z,93.62
2022-08-03T05:59:56.401Z,93.95
2022-08-03T06:00:51.901Z,93.57
2022-08-03T06:01:51.906Z,93.37
2022-08-03T06:02:51.841Z,93.76
2022-08-03T06:03:51.818Z,93.47
2022-08-03T06:04:51.785Z,94.05
2022-08-03T06:05:55.532Z,93.85
2022-08-03T06:06:51.731Z,93.47
2022-08-03T06:07:51.699Z,93.57
2022-08-03T06:08:51.670Z,94.05
2022-08-03T06:10:33.835Z,93.95
2022-08-03T06:10:51.610Z,93.85
2022-08-03T06:11:51.583Z,93.28
2022-08-03T06:12:51.559Z,92.99
2022-08-03T06:13:51.527Z,93.18
2022-08-03T06:14:51.496Z,93.57
2022-08-03T06:15:51.466Z,92.99
2022-08-03T06:16:51.439Z,93.08
2022-08-03T06:17:51.409Z,93.23
2022-08-03T06:18:51.381Z,92.94
2022-08-03T06:19:51.358Z,93.13
2022-08-03T06:20:51.327Z,93.62
2022-08-03T06:21:51.296Z,93.04
2022-08-03T06:23:00.174Z,93.23
2022-08-03T06:23:54.418Z,93.13
2022-08-03T06:24:53.479Z,93.23
2022-08-03T06:25:51.183Z,93.23
2022-08-03T06:26:51.146Z,93.32
2022-08-03T06:27:51.120Z,92.94
2022-08-03T06:28:52.637Z,93.13
2022-08-03T06:29:51.064Z,93.52
2022-08-03T06:30:51.034Z,93.23
2022-08-03T06:31:51.007Z,92.84
2022-08-03T06:32:51.651Z,93.23
2022-08-03T06:34:33.152Z,92.50
2022-08-03T06:34:50.927Z,92.79
2022-08-03T06:35:50.923Z,92.60
2022-08-03T06:36:50.863Z,92.60
2022-08-03T06:37:50.849Z,92.89
2022-08-03T06:38:50.804Z,91.92
2022-08-03T06:39:50.781Z,92.79
2022-08-03T06:40:50.931Z,92.21
2022-08-03T06:41:50.726Z,92.21
2022-08-03T06:42:50.696Z,92.50
2022-08-03T06:44:03.608Z,92.31
2022-08-03T06:44:50.640Z,92.02
2022-08-03T06:45:50.607Z,91.97
2022-08-03T06:46:50.578Z,92.25
2022-08-03T06:47:50.552Z,92.16
2022-08-03T06:48:50.522Z,92.16
2022-08-03T06:50:16.620Z,91.87
2022-08-03T06:50:50.472Z,92.07
2022-08-03T06:52:03.625Z,92.07
2022-08-03T06:52:50.410Z,91.67
2022-08-03T06:53:50.387Z,91.82
2022-08-03T06:54:50.355Z,91.63
2022-08-03T06:55:54.426Z,91.72
2022-08-03T06:56:50.298Z,91.82
2022-08-03T06:57:50.271Z,91.63
2022-08-03T06:58:50.243Z,91.91
2022-08-03T07:00:10.528Z,91.43
2022-08-03T07:00:50.185Z,91.05
2022-08-03T07:01:50.228Z,90.56
2022-08-03T07:02:52.637Z,90.56
2022-08-03T07:03:52.564Z,90.85
2022-08-03T07:04:50.078Z,91.14
2022-08-03T07:05:50.046Z,90.37
2022-08-03T07:06:50.016Z,89.93
2022-08-03T07:07:49.990Z,89.74
2022-08-03T07:08:52.892Z,89.54
2022-08-03T07:09:57.100Z,89.64
2022-08-03T07:10:49.908Z,89.25
2022-08-03T07:11:49.879Z,89.35
2022-08-03T07:12:56.032Z,89.35
2022-08-03T07:13:49.820Z,89.35
2022-08-03T07:14:49.796Z,89.39
2022-08-03T07:15:55.258Z,89.78
2022-08-03T07:16:49.739Z,89.78
2022-08-03T07:17:49.715Z,89.39
2022-08-03T07:18:49.687Z,89.78
2022-08-03T07:19:49.657Z,89.39
2022-08-03T07:20:49.624Z,89.29
2022-08-03T07:21:49.597Z,89.01
2022-08-03T07:22:49.575Z,89.11
2022-08-03T07:23:49.555Z,88.57
2022-08-03T07:24:49.519Z,88.85
2022-08-03T07:25:49.492Z,88.18
2022-08-03T07:26:49.465Z,88.28
2022-08-03T07:27:51.797Z,87.60
2022-08-03T07:28:49.407Z,87.99
2022-08-03T07:29:49.379Z,87.93
2022-08-03T07:30:49.353Z,86.92
2022-08-03T07:31:49.324Z,86.87
2022-08-03T07:32:50.615Z,87.26
2022-08-03T07:33:49.270Z,86.87
2022-08-03T07:34:49.246Z,86.77
2022-08-03T07:35:49.223Z,86.87
2022-08-03T07:36:49.190Z,85.90
2022-08-03T07:37:54.635Z,86.09
2022-08-03T07:38:49.163Z,85.61
2022-08-03T07:39:49.107Z,86.38
2022-08-03T07:40:49.078Z,85.71
2022-08-03T07:41:49.052Z,85.90
2022-08-03T07:42:53.409Z,85.27
2022-08-03T07:43:49.070Z,84.58
2022-08-03T07:44:48.971Z,84.88
2022-08-03T07:45:48.946Z,84.68
2022-08-03T07:46:48.916Z,85.46
2022-08-03T07:47:53.202Z,85.55
2022-08-03T07:48:48.862Z,85.36
2022-08-03T07:49:48.838Z,85.65
2022-08-03T07:50:48.810Z,85.60
2022-08-03T07:51:48.781Z,85.11
2022-08-03T07:52:48.756Z,84.72
2022-08-03T07:53:48.730Z,84.63
2022-08-03T07:54:48.701Z,84.34
2022-08-03T07:55:48.674Z,83.95
2022-08-03T07:56:48.647Z,83.47
2022-08-03T07:57:48.623Z,83.56
2022-08-03T07:58:48.594Z,82.78
2022-08-03T08:00:01.867Z,83.22
2022-08-03T08:00:48.595Z,82.44
2022-08-03T08:01:48.572Z,82.63
2022-08-03T08:02:48.494Z,82.82
2022-08-03T08:03:53.416Z,82.73
2022-08-03T08:04:48.434Z,82.82
2022-08-03T08:05:48.410Z,82.24
2022-08-03T08:06:48.393Z,81.47
2022-08-03T08:07:51.468Z,81.76
2022-08-03T08:08:48.338Z,81.66
2022-08-03T08:09:48.300Z,81.66
2022-08-03T08:10:58.214Z,81.51
2022-08-03T08:11:48.247Z,81.31
2022-08-03T08:12:48.223Z,81.12
2022-08-03T08:13:48.196Z,80.73
2022-08-03T08:14:48.170Z,80.44
2022-08-03T08:15:48.142Z,79.86
2022-08-03T08:16:48.118Z,79.66
2022-08-03T08:17:48.088Z,79.96
2022-08-03T08:18:48.067Z,79.61
2022-08-03T08:19:51.652Z,80.05
2022-08-03T08:20:48.024Z,79.61
2022-08-03T08:21:53.077Z,78.64
2022-08-03T08:22:47.964Z,79.12
2022-08-03T08:23:49.464Z,78.05
2022-08-03T08:24:47.909Z,78.92
2022-08-03T08:25:47.885Z,77.95
2022-08-03T08:26:47.855Z,78.28
2022-08-03T08:28:30.279Z,78.15
2022-08-03T08:28:47.804Z,78.67
2022-08-03T08:29:54.251Z,78.77
2022-08-03T08:30:47.755Z,79.25
2022-08-03T08:31:47.731Z,79.25
2022-08-03T08:32:47.726Z,79.16
2022-08-03T08:34:03.579Z,79.06
2022-08-03T08:34:47.646Z,78.28
2022-08-03T08:35:47.622Z,78.38
2022-08-03T08:36:47.593Z,78.19
2022-08-03T08:37:51.078Z,77.94
2022-08-03T08:38:47.542Z,77.84
2022-08-03T08:39:47.518Z,77.35
2022-08-03T08:40:47.489Z,76.97
2022-08-03T08:41:49.627Z,77.25
2022-08-03T08:42:57.865Z,77.35
2022-08-03T08:43:47.411Z,76.48
2022-08-03T08:44:47.385Z,75.89
2022-08-03T08:45:47.366Z,76.57
2022-08-03T08:46:47.335Z,76.57
2022-08-03T08:47:51.466Z,75.93
2022-08-03T08:48:47.285Z,75.64
2022-08-03T08:50:08.588Z,74.92
2022-08-03T08:50:47.233Z,74.96
2022-08-03T08:51:59.296Z,75.05
2022-08-03T08:52:47.189Z,75.25
2022-08-03T08:53:47.163Z,75.19
2022-08-03T08:54:47.166Z,74.61
2022-08-03T08:55:58.324Z,74.51
2022-08-03T08:56:47.080Z,74.02
2022-08-03T08:57:47.054Z,73.73
2022-08-03T08:58:47.032Z,74.22
2022-08-03T08:59:49.026Z,74.51
2022-08-03T09:00:47.003Z,74.61
2022-08-03T09:01:46.951Z,74.32
2022-08-03T09:02:46.946Z,75.19
2022-08-03T09:03:46.912Z,74.71
2022-08-03T09:04:46.902Z,74.22
2022-08-03T09:05:55.755Z,74.61
2022-08-03T09:07:04.525Z,74.55
2022-08-03T09:07:46.799Z,74.51
2022-08-03T09:08:46.774Z,72.99
2022-08-03T09:10:10.390Z,72.99
2022-08-03T09:10:46.732Z,73.08
2022-08-03T09:11:51.464Z,73.28
2022-08-03T09:12:46.681Z,72.21
2022-08-03T09:13:46.649Z,72.31
2022-08-03T09:15:07.259Z,72.50
2022-08-03T09:15:59.834Z,72.31
2022-08-03T09:16:46.574Z,72.44
2022-08-03T09:17:50.865Z,72.15
2022-08-03T09:18:46.529Z,71.08
2022-08-03T09:20:02.840Z,70.88
2022-08-03T09:20:46.476Z,71.56
2022-08-03T09:21:46.467Z,70.98
2022-08-03T09:22:46.422Z,70.88
2022-08-03T09:24:01.452Z,71.17
2022-08-03T09:24:49.030Z,70.82
2022-08-03T09:25:46.352Z,70.82
2022-08-03T09:26:46.324Z,71.41
2022-08-03T09:27:46.321Z,71.41
2022-08-03T09:29:01.681Z,71.31
2022-08-03T09:29:46.258Z,71.80
2022-08-03T09:30:46.229Z,71.80
2022-08-03T09:31:46.463Z,71.41
2022-08-03T09:32:46.177Z,70.72
2022-08-03T09:33:46.152Z,70.92
2022-08-03T09:34:46.135Z,70.82
2022-08-03T09:35:54.802Z,70.53
2022-08-03T09:36:46.076Z,70.14
2022-08-03T09:38:12.012Z,70.33
2022-08-03T09:38:46.029Z,70.07
2022-08-03T09:39:46.005Z,69.78
2022-08-03T09:40:45.979Z,69.59
2022-08-03T09:41:45.964Z,69.78
2022-08-03T09:42:45.927Z,70.37
2022-08-03T09:43:45.907Z,70.86
2022-08-03T09:44:45.894Z,70.07
2022-08-03T09:45:45.856Z,69.88
2022-08-03T09:46:45.829Z,69.59
2022-08-03T09:47:45.804Z,69.59
2022-08-03T09:48:45.783Z,69.49
2022-08-03T09:49:45.756Z,69.88
2022-08-03T09:50:57.142Z,69.29
2022-08-03T09:52:38.388Z,68.84
2022-08-03T09:52:51.905Z,69.23
2022-08-03T09:53:59.238Z,69.13
2022-08-03T09:54:45.645Z,69.23
2022-08-03T09:56:33.029Z,69.43
2022-08-03T09:56:45.585Z,69.43
2022-08-03T09:57:45.566Z,68.35
2022-08-03T09:58:45.539Z,68.55
2022-08-03T09:59:45.518Z,67.47
2022-08-03T10:00:45.535Z,67.38
2022-08-03T10:01:45.539Z,67.77
2022-08-03T10:02:45.441Z,67.57
2022-08-03T10:04:03.230Z,67.41
2022-08-03T10:04:45.418Z,67.32
2022-08-03T10:05:45.367Z,67.02
2022-08-03T10:06:45.355Z,66.73
2022-08-03T10:07:46.282Z,66.73
2022-08-03T10:08:45.297Z,67.02
2022-08-03T10:09:45.270Z,66.05
2022-08-03T10:10:45.248Z,66.05
2022-08-03T10:11:45.222Z,66.44
2022-08-03T10:12:45.199Z,65.95
2022-08-03T10:13:45.177Z,66.24
2022-08-03T10:14:45.156Z,65.78
2022-08-03T10:16:23.718Z,66.76
2022-08-03T10:16:45.103Z,65.88
2022-08-03T10:17:45.076Z,65.69
2022-08-03T10:18:45.051Z,65.69
2022-08-03T10:19:45.031Z,65.49
2022-08-03T10:20:45.005Z,65.20
2022-08-03T10:21:44.981Z,65.10
2022-08-03T10:22:44.960Z,65.39
2022-08-03T10:23:45.626Z,66.08
2022-08-03T10:24:44.909Z,65.78
2022-08-03T10:25:44.883Z,66.02
2022-08-03T10:26:49.793Z,65.82
2022-08-03T10:27:44.836Z,66.21
2022-08-03T10:28:45.641Z,66.41
2022-08-03T10:29:44.789Z,64.75
2022-08-03T10:30:44.767Z,64.06
2022-08-03T10:31:57.241Z,63.38
2022-08-03T10:32:44.717Z,63.57
2022-08-03T10:33:50.907Z,63.96
2022-08-03T10:34:44.884Z,63.21
2022-08-03T10:35:44.646Z,63.70
2022-08-03T10:36:44.630Z,63.28
2022-08-03T10:37:48.320Z,62.89
2022-08-03T10:38:44.572Z,63.48
2022-08-03T10:39:44.552Z,63.67
2022-08-03T10:40:55.817Z,63.21
2022-08-03T10:43:23.754Z,63.51
2022-08-03T10:44:23.707Z,62.73
2022-08-03T10:46:27.632Z,63.02
2022-08-03T10:47:27.605Z,63.44
2022-08-03T10:49:33.867Z,63.15
2022-08-03T10:50:31.498Z,62.26
2022-08-03T10:52:39.664Z,62.29
2022-08-03T10:53:35.401Z,62.59
2022-08-03T10:55:39.323Z,61.93
2022-08-03T10:56:49.741Z,61.44
2022-08-03T10:58:57.272Z,61.54
2022-08-03T10:59:43.185Z,62.32
2022-08-03T11:01:59.995Z,61.64
2022-08-03T11:02:36.007Z,61.74
2022-08-03T11:04:39.924Z,61.57
2022-08-03T11:05:39.894Z,61.47
2022-08-03T11:07:43.831Z,60.21
2022-08-03T11:08:43.805Z,60.08
2022-08-03T11:10:47.732Z,59.88
2022-08-03T11:11:47.695Z,60.79
2022-08-03T11:13:51.624Z,60.13
2022-08-03T11:14:51.831Z,60.03
2022-08-03T11:16:55.514Z,59.90
2022-08-03T11:17:56.129Z,59.61
2022-08-03T11:19:59.437Z,58.95
2022-08-03T11:20:59.399Z,58.48
2022-08-03T11:23:03.313Z,57.43
2022-08-03T11:24:06.668Z,57.53
2022-08-03T11:26:07.234Z,56.26
2022-08-03T11:27:07.199Z,56.65
2022-08-03T11:29:11.118Z,56.90
2022-08-03T11:30:11.097Z,56.21
2022-08-03T11:32:03.966Z,56.27
2022-08-03T11:33:03.932Z,56.16
2022-08-03T11:35:07.857Z,54.03
2022-08-03T11:36:07.844Z,53.64
2022-08-03T11:37:07.820Z,53.66
2022-08-03T11:38:07.799Z,52.78
2022-08-03T11:39:07.781Z,52.48
2022-08-03T11:40:07.761Z,53.36
2022-08-03T11:41:07.757Z,53.09
2022-08-03T11:42:07.721Z,53.71
2022-08-03T11:43:07.703Z,51.74
2022-08-03T11:44:07.685Z,50.93
2022-08-03T11:45:07.672Z,51.64
2022-08-03T11:46:07.650Z,51.77
2022-08-03T11:47:07.626Z,51.47
2022-08-03T11:48:07.612Z,51.50
2022-08-03T11:49:10.984Z,50.43
2022-08-03T11:50:07.573Z,49.92
2022-08-03T11:51:07.556Z,50.43
2022-08-03T11:52:07.534Z,49.84
2022-08-03T11:53:07.528Z,50.24
2022-08-03T11:54:07.501Z,49.57
2022-08-03T11:55:07.484Z,49.57
2022-08-03T11:56:12.989Z,49.79
2022-08-03T11:57:07.448Z,48.11
2022-08-03T11:59:00.956Z,48.21
2022-08-03T11:59:19.924Z,48.71
2022-08-03T12:00:07.411Z,47.69
2022-08-03T12:01:07.383Z,47.89
2022-08-03T12:02:07.362Z,48.80
2022-08-03T12:03:07.428Z,47.94
2022-08-03T12:04:07.335Z,47.94
2022-08-03T12:05:07.311Z,47.56
2022-08-03T12:06:07.293Z,47.07
2022-08-03T12:07:07.285Z,46.89
2022-08-03T12:08:07.469Z,46.42
2022-08-03T12:09:07.254Z,46.52
2022-08-03T12:10:07.279Z,46.82
2022-08-03T12:11:07.216Z,46.12
2022-08-03T12:12:07.218Z,46.25
2022-08-03T12:14:33.107Z,46.15
2022-08-03T12:14:50.241Z,46.37
2022-08-03T12:15:07.142Z,45.08
2022-08-03T12:16:07.126Z,45.14
2022-08-03T12:17:07.114Z,46.01
2022-08-03T12:18:07.112Z,46.30
2022-08-03T12:19:07.161Z,46.23
2022-08-03T12:20:07.111Z,45.90
2022-08-03T12:21:07.054Z,46.50
2022-08-03T12:22:07.033Z,46.03
2022-08-03T12:23:07.021Z,45.98
2022-08-03T12:24:06.997Z,46.75
2022-08-03T12:25:06.983Z,46.83
2022-08-03T12:26:06.965Z,47.05
2022-08-03T12:27:06.953Z,46.50
2022-08-03T12:28:06.941Z,46.11
2022-08-03T12:29:06.924Z,46.42
2022-08-03T12:30:06.934Z,46.01
2022-08-03T12:31:06.895Z,45.85
2022-08-03T12:32:06.870Z,45.85
2022-08-03T12:33:06.850Z,45.38
2022-08-03T12:34:06.840Z,45.60
2022-08-03T12:35:06.822Z,44.98
2022-08-03T12:36:06.803Z,45.14
2022-08-03T12:37:21.774Z,45.71
2022-08-03T12:38:06.778Z,45.51
2022-08-03T12:39:06.753Z,45.96
2022-08-03T12:40:10.468Z,46.26
2022-08-03T12:41:06.722Z,47.50
2022-08-03T12:42:06.707Z,47.15
2022-08-03T12:43:06.691Z,46.04
2022-08-03T12:44:06.670Z,46.29
2022-08-03T12:45:06.653Z,47.77
2022-08-03T12:46:06.643Z,48.09
2022-08-03T12:47:06.637Z,47.32
2022-08-03T12:48:06.605Z,47.27
2022-08-03T12:49:06.661Z,46.52
2022-08-03T12:50:06.569Z,45.97
2022-08-03T12:51:06.553Z,44.90
2022-08-03T12:52:07.703Z,44.59
2022-08-03T12:53:07.996Z,44.76
2022-08-03T12:54:06.509Z,46.31
2022-08-03T12:55:06.487Z,46.76
2022-08-03T12:56:06.544Z,47.97
2022-08-03T12:57:06.455Z,47.45
2022-08-03T12:58:06.433Z,48.61
2022-08-03T12:59:06.421Z,48.46
2022-08-03T13:00:06.399Z,47.45
2022-08-03T13:01:09.554Z,48.49
2022-08-03T13:02:09.703Z,48.74
2022-08-03T13:03:38.153Z,48.36
2022-08-03T13:04:06.330Z,47.30
2022-08-03T13:05:06.318Z,46.81
2022-08-03T13:06:06.298Z,46.73
2022-08-03T13:07:06.546Z,46.36
2022-08-03T13:08:06.263Z,47.69
2022-08-03T13:09:06.251Z,46.52
2022-08-03T13:10:08.173Z,45.78
2022-08-03T13:11:06.210Z,45.20
2022-08-03T13:12:06.191Z,44.41
2022-08-03T13:13:06.174Z,44.39
2022-08-03T13:14:06.157Z,44.39
2022-08-03T13:15:06.141Z,44.49
2022-08-03T13:16:06.147Z,44.29
2022-08-03T13:17:06.118Z,44.71
2022-08-03T13:18:06.090Z,44.53
2022-08-03T13:19:06.076Z,44.35
2022-08-03T13:20:06.060Z,43.38
2022-08-03T13:21:06.038Z,43.01
2022-08-03T13:22:06.021Z,44.32
2022-08-03T13:23:06.013Z,43.64
2022-08-03T13:24:05.993Z,42.75
2022-08-03T13:25:05.969Z,41.87
2022-08-03T13:26:05.960Z,41.60
2022-08-03T13:28:02.598Z,41.39
2022-08-03T13:28:08.115Z,41.52
2022-08-03T13:29:05.910Z,41.02
2022-08-03T13:30:05.891Z,40.82
2022-08-03T13:31:05.879Z,40.94
2022-08-03T13:32:05.860Z,40.56
2022-08-03T13:33:05.847Z,40.28
2022-08-03T13:34:05.834Z,39.98
2022-08-03T13:35:05.821Z,39.78
2022-08-03T13:36:05.808Z,39.58
2022-08-03T13:37:09.416Z,39.68
2022-08-03T13:38:05.829Z,39.68
2022-08-03T13:39:05.756Z,38.67
2022-08-03T13:40:05.930Z,39.56
2022-08-03T13:41:05.730Z,40.24
2022-08-03T13:42:05.708Z,40.02
2022-08-03T13:43:05.699Z,40.42
2022-08-03T13:44:26.456Z,40.40
2022-08-03T13:45:05.667Z,40.88
2022-08-03T13:46:05.650Z,40.98
2022-08-03T13:47:05.634Z,40.78
2022-08-03T13:48:05.624Z,40.84
2022-08-03T13:49:05.611Z,41.52
2022-08-03T13:50:05.682Z,41.22
2022-08-03T13:51:21.956Z,41.20
2022-08-03T13:52:05.561Z,41.79
2022-08-03T13:53:05.550Z,41.89
2022-08-03T13:54:05.534Z,42.19
2022-08-03T13:55:05.516Z,41.52
2022-08-03T13:56:05.500Z,41.99
2022-08-03T13:58:05.300Z,42.23
2022-08-03T13:58:07.434Z,41.63